sensor_id;sensor_type;location;lat;lon;timestamp;pressure;altitude;pressure_sealevel;temperature;humidity
55466;BME280;41329;41.594;23.810;2023-03-16T00:00:46;94068.75;;;6.75;56.90
55466;BME280;41329;41.594;23.810;2023-03-16T00:03:12;94090.75;;;6.75;57.00
55466;BME280;41329;41.594;23.810;2023-03-16T00:05:52;94097.44;;;6.74;57.11
55466;BME280;41329;41.594;23.810;2023-03-16T00:08:19;94099.75;;;6.72;57.19
55466;BME280;41329;41.594;23.810;2023-03-16T00:10:45;94084.66;;;6.55;57.10
55466;BME280;41329;41.594;23.810;2023-03-16T00:13:19;94098.81;;;6.57;57.48
55466;BME280;41329;41.594;23.810;2023-03-16T00:16:01;94100.34;;;6.54;58.06
55466;BME280;41329;41.594;23.810;2023-03-16T00:18:28;94098.38;;;6.52;58.34
55466;BME280;41329;41.594;23.810;2023-03-16T00:20:56;94107.88;;;6.61;58.36
55466;BME280;41329;41.594;23.810;2023-03-16T00:23:22;94115.75;;;6.63;58.39
55466;BME280;41329;41.594;23.810;2023-03-16T00:25:58;94120.06;;;6.63;58.49
55466;BME280;41329;41.594;23.810;2023-03-16T00:28:26;94114.97;;;6.62;58.87
55466;BME280;41329;41.594;23.810;2023-03-16T00:30:55;94120.50;;;6.66;59.44
55466;BME280;41329;41.594;23.810;2023-03-16T00:33:25;94119.78;;;6.72;59.45
55466;BME280;41329;41.594;23.810;2023-03-16T00:35:50;94117.88;;;6.76;59.48
55466;BME280;41329;41.594;23.810;2023-03-16T00:38:35;94116.31;;;6.79;59.89
55466;BME280;41329;41.594;23.810;2023-03-16T00:41:02;94117.13;;;6.79;60.22
55466;BME280;41329;41.594;23.810;2023-03-16T00:43:30;94111.94;;;6.74;59.95
55466;BME280;41329;41.594;23.810;2023-03-16T00:45:59;94099.34;;;6.70;59.73
55466;BME280;41329;41.594;23.810;2023-03-16T00:48:34;94100.94;;;6.74;59.39
55466;BME280;41329;41.594;23.810;2023-03-16T00:51:04;94103.41;;;6.83;59.68
55466;BME280;41329;41.594;23.810;2023-03-16T00:53:34;94112.84;;;6.85;59.57
55466;BME280;41329;41.594;23.810;2023-03-16T00:56:01;94104.94;;;6.77;59.52
55466;BME280;41329;41.594;23.810;2023-03-16T00:58:35;94102.56;;;6.79;59.70
55466;BME280;41329;41.594;23.810;2023-03-16T01:03:27;94104.22;;;6.83;59.50
55466;BME280;41329;41.594;23.810;2023-03-16T01:05:52;94091.50;;;6.72;59.68
55466;BME280;41329;41.594;23.810;2023-03-16T01:08:18;94103.84;;;6.88;59.69
55466;BME280;41329;41.594;23.810;2023-03-16T01:10:43;94090.41;;;6.80;59.57
55466;BME280;41329;41.594;23.810;2023-03-16T01:13:09;94101.13;;;6.92;59.84
55466;BME280;41329;41.594;23.810;2023-03-16T01:15:35;94085.72;;;6.84;59.79
55466;BME280;41329;41.594;23.810;2023-03-16T01:18:00;94096.81;;;6.91;59.80
55466;BME280;41329;41.594;23.810;2023-03-16T01:20:26;94094.09;;;6.94;59.99
55466;BME280;41329;41.594;23.810;2023-03-16T01:22:52;94085.34;;;6.85;59.78
55466;BME280;41329;41.594;23.810;2023-03-16T01:25:17;94095.66;;;6.95;59.78
55466;BME280;41329;41.594;23.810;2023-03-16T01:27:43;94075.94;;;6.86;59.60
55466;BME280;41329;41.594;23.810;2023-03-16T01:30:09;94093.34;;;7.01;60.04
55466;BME280;41329;41.594;23.810;2023-03-16T01:32:37;94083.13;;;6.98;60.20
55466;BME280;41329;41.594;23.810;2023-03-16T01:35:04;94081.63;;;7.04;59.74
55466;BME280;41329;41.594;23.810;2023-03-16T01:37:30;94086.72;;;7.02;59.53
55466;BME280;41329;41.594;23.810;2023-03-16T01:39:56;94084.72;;;7.02;59.38
55466;BME280;41329;41.594;23.810;2023-03-16T01:42:21;94070.06;;;6.88;59.43
55466;BME280;41329;41.594;23.810;2023-03-16T01:44:56;94081.88;;;6.88;59.63
55466;BME280;41329;41.594;23.810;2023-03-16T01:47:25;94085.00;;;6.87;59.61
55466;BME280;41329;41.594;23.810;2023-03-16T01:49:54;94084.13;;;6.79;59.78
55466;BME280;41329;41.594;23.810;2023-03-16T01:52:27;94093.59;;;6.82;59.80
55466;BME280;41329;41.594;23.810;2023-03-16T01:54:59;94088.66;;;6.61;60.10
55466;BME280;41329;41.594;23.810;2023-03-16T01:57:28;94106.31;;;6.60;60.22
55466;BME280;41329;41.594;23.810;2023-03-16T02:00:03;94096.41;;;6.52;60.21
55466;BME280;41329;41.594;23.810;2023-03-16T02:02:45;94103.41;;;6.46;60.40
55466;BME280;41329;41.594;23.810;2023-03-16T02:05:14;94110.91;;;6.49;60.67
55466;BME280;41329;41.594;23.810;2023-03-16T02:07:43;94106.78;;;6.32;60.79
55466;BME280;41329;41.594;23.810;2023-03-16T02:10:11;94095.91;;;6.10;61.28
55466;BME280;41329;41.594;23.810;2023-03-16T02:12:38;94107.31;;;6.12;61.69
55466;BME280;41329;41.594;23.810;2023-03-16T02:15:04;94104.94;;;6.10;62.01
55466;BME280;41329;41.594;23.810;2023-03-16T02:17:31;94088.78;;;6.05;62.22
55466;BME280;41329;41.594;23.810;2023-03-16T02:22:49;94107.78;;;6.17;62.31
55466;BME280;41329;41.594;23.810;2023-03-16T02:25:21;94093.50;;;6.08;62.48
55466;BME280;41329;41.594;23.810;2023-03-16T02:27:50;94095.91;;;6.10;62.38
55466;BME280;41329;41.594;23.810;2023-03-16T02:30:19;94115.69;;;6.22;62.40
55466;BME280;41329;41.594;23.810;2023-03-16T02:32:47;94114.50;;;6.23;62.63
55466;BME280;41329;41.594;23.810;2023-03-16T02:35:14;94118.38;;;6.19;62.31
55466;BME280;41329;41.594;23.810;2023-03-16T02:37:39;94123.94;;;6.22;62.56
55466;BME280;41329;41.594;23.810;2023-03-16T02:40:22;94115.31;;;6.24;62.82
55466;BME280;41329;41.594;23.810;2023-03-16T02:43:02;94095.97;;;6.13;62.75
55466;BME280;41329;41.594;23.810;2023-03-16T02:45:33;94104.97;;;6.14;62.88
55466;BME280;41329;41.594;23.810;2023-03-16T02:48:01;94108.16;;;6.16;62.71
55466;BME280;41329;41.594;23.810;2023-03-16T02:50:29;94109.97;;;6.05;62.90
55466;BME280;41329;41.594;23.810;2023-03-16T02:52:55;94114.34;;;6.09;62.91
55466;BME280;41329;41.594;23.810;2023-03-16T02:55:20;94102.16;;;6.07;62.86
55466;BME280;41329;41.594;23.810;2023-03-16T02:57:46;94122.75;;;6.23;62.98
55466;BME280;41329;41.594;23.810;2023-03-16T03:00:12;94120.47;;;6.29;63.09
55466;BME280;41329;41.594;23.810;2023-03-16T03:02:43;94128.78;;;6.36;63.03
55466;BME280;41329;41.594;23.810;2023-03-16T03:05:09;94128.03;;;6.39;63.01
55466;BME280;41329;41.594;23.810;2023-03-16T03:07:36;94138.69;;;6.44;62.84
55466;BME280;41329;41.594;23.810;2023-03-16T03:10:02;94135.56;;;6.45;63.05
55466;BME280;41329;41.594;23.810;2023-03-16T03:12:28;94141.06;;;6.45;63.08
55466;BME280;41329;41.594;23.810;2023-03-16T03:14:54;94127.56;;;6.33;63.27
55466;BME280;41329;41.594;23.810;2023-03-16T03:17:21;94141.91;;;6.49;63.24
55466;BME280;41329;41.594;23.810;2023-03-16T03:20:00;94147.41;;;6.49;63.33
55466;BME280;41329;41.594;23.810;2023-03-16T03:22:30;94147.50;;;6.57;63.52
55466;BME280;41329;41.594;23.810;2023-03-16T03:24:55;94152.97;;;6.57;63.15
55466;BME280;41329;41.594;23.810;2023-03-16T03:27:21;94159.41;;;6.34;63.49
55466;BME280;41329;41.594;23.810;2023-03-16T03:29:47;94147.00;;;6.18;63.62
55466;BME280;41329;41.594;23.810;2023-03-16T03:32:12;94145.06;;;6.18;63.36
55466;BME280;41329;41.594;23.810;2023-03-16T03:34:38;94167.22;;;6.36;63.22
55466;BME280;41329;41.594;23.810;2023-03-16T03:37:04;94120.59;;;6.10;63.40
55466;BME280;41329;41.594;23.810;2023-03-16T03:39:29;94170.50;;;6.45;62.95
55466;BME280;41329;41.594;23.810;2023-03-16T03:41:54;94183.91;;;6.50;63.22
55466;BME280;41329;41.594;23.810;2023-03-16T03:44:21;94173.31;;;6.52;63.22
55466;BME280;41329;41.594;23.810;2023-03-16T03:46:47;94177.72;;;6.57;63.10
55466;BME280;41329;41.594;23.810;2023-03-16T03:49:13;94172.63;;;6.58;63.01
55466;BME280;41329;41.594;23.810;2023-03-16T03:51:38;94179.75;;;6.63;63.01
55466;BME280;41329;41.594;23.810;2023-03-16T03:54:06;94173.88;;;6.65;63.11
55466;BME280;41329;41.594;23.810;2023-03-16T03:56:31;94177.75;;;6.60;63.11
55466;BME280;41329;41.594;23.810;2023-03-16T03:58:57;94181.28;;;6.61;63.02
55466;BME280;41329;41.594;23.810;2023-03-16T04:01:22;94174.50;;;6.51;62.90
55466;BME280;41329;41.594;23.810;2023-03-16T04:03:48;94188.00;;;6.63;62.89
55466;BME280;41329;41.594;23.810;2023-03-16T04:06:13;94191.59;;;6.67;62.98
55466;BME280;41329;41.594;23.810;2023-03-16T04:08:39;94189.59;;;6.68;63.17
55466;BME280;41329;41.594;23.810;2023-03-16T04:11:04;94186.88;;;6.68;62.97
55466;BME280;41329;41.594;23.810;2023-03-16T04:13:30;94182.16;;;6.68;63.25
55466;BME280;41329;41.594;23.810;2023-03-16T04:15:56;94188.47;;;6.69;63.55
55466;BME280;41329;41.594;23.810;2023-03-16T04:18:22;94199.16;;;6.77;63.50
55466;BME280;41329;41.594;23.810;2023-03-16T04:20:48;94199.47;;;6.69;63.34
55466;BME280;41329;41.594;23.810;2023-03-16T04:23:13;94199.78;;;6.63;63.37
55466;BME280;41329;41.594;23.810;2023-03-16T04:25:41;94175.69;;;6.50;63.54
55466;BME280;41329;41.594;23.810;2023-03-16T04:28:07;94201.03;;;6.70;63.51
55466;BME280;41329;41.594;23.810;2023-03-16T04:30:32;94211.22;;;6.69;63.38
55466;BME280;41329;41.594;23.810;2023-03-16T04:32:59;94205.69;;;6.66;63.71
55466;BME280;41329;41.594;23.810;2023-03-16T04:35:25;94218.72;;;6.72;63.83
55466;BME280;41329;41.594;23.810;2023-03-16T04:37:50;94201.75;;;6.63;64.11
55466;BME280;41329;41.594;23.810;2023-03-16T04:40:16;94219.47;;;6.69;64.01
55466;BME280;41329;41.594;23.810;2023-03-16T04:42:45;94213.19;;;6.69;63.79
55466;BME280;41329;41.594;23.810;2023-03-16T04:45:12;94226.25;;;6.75;63.63
55466;BME280;41329;41.594;23.810;2023-03-16T04:47:38;94222.84;;;6.56;63.94
55466;BME280;41329;41.594;23.810;2023-03-16T04:50:04;94216.31;;;6.37;64.13
55466;BME280;41329;41.594;23.810;2023-03-16T04:52:30;94229.84;;;6.23;64.83
55466;BME280;41329;41.594;23.810;2023-03-16T04:54:56;94228.00;;;6.31;64.92
55466;BME280;41329;41.594;23.810;2023-03-16T04:57:22;94228.91;;;6.38;64.90
55466;BME280;41329;41.594;23.810;2023-03-16T04:59:47;94233.59;;;6.38;64.71
55466;BME280;41329;41.594;23.810;2023-03-16T05:02:13;94229.69;;;6.39;64.67
55466;BME280;41329;41.594;23.810;2023-03-16T05:04:39;94249.78;;;6.46;64.90
55466;BME280;41329;41.594;23.810;2023-03-16T05:07:04;94247.47;;;6.48;65.13
55466;BME280;41329;41.594;23.810;2023-03-16T05:09:30;94242.78;;;6.49;65.05
55466;BME280;41329;41.594;23.810;2023-03-16T05:11:57;94251.75;;;6.46;65.01
55466;BME280;41329;41.594;23.810;2023-03-16T05:14:22;94243.53;;;6.46;64.83
55466;BME280;41329;41.594;23.810;2023-03-16T05:16:47;94253.78;;;6.49;64.79
55466;BME280;41329;41.594;23.810;2023-03-16T05:19:13;94239.47;;;6.36;65.17
55466;BME280;41329;41.594;23.810;2023-03-16T05:21:38;94238.13;;;6.27;65.26
55466;BME280;41329;41.594;23.810;2023-03-16T05:24:04;94256.06;;;6.43;65.27
55466;BME280;41329;41.594;23.810;2023-03-16T05:26:30;94270.47;;;6.37;64.97
55466;BME280;41329;41.594;23.810;2023-03-16T05:28:55;94264.69;;;6.45;64.97
55466;BME280;41329;41.594;23.810;2023-03-16T05:31:22;94273.38;;;6.47;64.90
55466;BME280;41329;41.594;23.810;2023-03-16T05:33:48;94272.25;;;6.52;65.09
55466;BME280;41329;41.594;23.810;2023-03-16T05:36:13;94263.38;;;6.36;65.11
55466;BME280;41329;41.594;23.810;2023-03-16T05:38:38;94269.50;;;6.52;65.52
55466;BME280;41329;41.594;23.810;2023-03-16T05:41:04;94260.25;;;6.37;65.73
55466;BME280;41329;41.594;23.810;2023-03-16T05:43:30;94275.00;;;6.52;65.84
55466;BME280;41329;41.594;23.810;2023-03-16T05:45:56;94256.47;;;6.45;65.96
55466;BME280;41329;41.594;23.810;2023-03-16T05:48:22;94245.09;;;6.47;66.22
55466;BME280;41329;41.594;23.810;2023-03-16T05:50:50;94254.31;;;6.62;66.30
55466;BME280;41329;41.594;23.810;2023-03-16T05:53:16;94275.00;;;6.82;66.34
55466;BME280;41329;41.594;23.810;2023-03-16T05:55:44;94274.72;;;6.90;66.18
55466;BME280;41329;41.594;23.810;2023-03-16T05:58:09;94280.34;;;7.01;66.01
55466;BME280;41329;41.594;23.810;2023-03-16T06:00:36;94268.09;;;6.95;65.66
55466;BME280;41329;41.594;23.810;2023-03-16T06:03:03;94267.59;;;6.86;65.44
55466;BME280;41329;41.594;23.810;2023-03-16T06:05:29;94287.75;;;6.97;65.82
55466;BME280;41329;41.594;23.810;2023-03-16T06:07:56;94282.72;;;7.02;65.85
55466;BME280;41329;41.594;23.810;2023-03-16T06:10:23;94282.81;;;7.09;66.14
55466;BME280;41329;41.594;23.810;2023-03-16T06:12:50;94278.63;;;7.19;66.10
55466;BME280;41329;41.594;23.810;2023-03-16T06:15:15;94288.59;;;7.34;66.38
55466;BME280;41329;41.594;23.810;2023-03-16T06:17:41;94289.31;;;7.27;66.22
55466;BME280;41329;41.594;23.810;2023-03-16T06:20:08;94301.19;;;7.35;66.13
55466;BME280;41329;41.594;23.810;2023-03-16T06:22:36;94277.47;;;7.23;66.07
55466;BME280;41329;41.594;23.810;2023-03-16T06:25:03;94293.31;;;7.33;65.62
55466;BME280;41329;41.594;23.810;2023-03-16T06:27:28;94305.72;;;7.53;65.57
55466;BME280;41329;41.594;23.810;2023-03-16T06:29:54;94306.88;;;7.52;65.72
55466;BME280;41329;41.594;23.810;2023-03-16T06:32:20;94297.41;;;7.46;65.82
55466;BME280;41329;41.594;23.810;2023-03-16T06:34:46;94301.50;;;7.63;66.13
55466;BME280;41329;41.594;23.810;2023-03-16T06:37:12;94317.38;;;7.76;65.86
55466;BME280;41329;41.594;23.810;2023-03-16T06:39:38;94307.63;;;7.86;65.30
55466;BME280;41329;41.594;23.810;2023-03-16T06:42:03;94324.75;;;8.09;65.29
55466;BME280;41329;41.594;23.810;2023-03-16T06:44:29;94306.19;;;8.02;64.31
55466;BME280;41329;41.594;23.810;2023-03-16T06:46:56;94330.00;;;8.21;62.88
55466;BME280;41329;41.594;23.810;2023-03-16T06:49:21;94322.56;;;8.25;63.04
55466;BME280;41329;41.594;23.810;2023-03-16T06:51:46;94324.22;;;8.36;63.16
55466;BME280;41329;41.594;23.810;2023-03-16T06:54:12;94322.66;;;8.39;63.01
55466;BME280;41329;41.594;23.810;2023-03-16T06:56:37;94323.13;;;8.44;63.30
55466;BME280;41329;41.594;23.810;2023-03-16T06:59:03;94335.47;;;8.64;62.55
55466;BME280;41329;41.594;23.810;2023-03-16T07:01:28;94324.41;;;8.61;61.58
55466;BME280;41329;41.594;23.810;2023-03-16T07:03:54;94343.84;;;8.82;61.82
55466;BME280;41329;41.594;23.810;2023-03-16T07:06:19;94323.00;;;8.84;61.69
55466;BME280;41329;41.594;23.810;2023-03-16T07:08:45;94336.88;;;9.02;61.58
55466;BME280;41329;41.594;23.810;2023-03-16T07:11:10;94340.34;;;8.85;61.70
55466;BME280;41329;41.594;23.810;2023-03-16T07:13:36;94347.09;;;8.98;61.55
55466;BME280;41329;41.594;23.810;2023-03-16T07:16:02;94347.50;;;8.96;61.80
55466;BME280;41329;41.594;23.810;2023-03-16T07:18:29;94350.34;;;9.10;61.59
55466;BME280;41329;41.594;23.810;2023-03-16T07:20:56;94337.38;;;9.14;61.24
55466;BME280;41329;41.594;23.810;2023-03-16T07:23:22;94350.13;;;9.47;61.64
55466;BME280;41329;41.594;23.810;2023-03-16T07:25:49;94353.78;;;9.68;60.91
55466;BME280;41329;41.594;23.810;2023-03-16T07:28:17;94348.69;;;9.88;60.50
55466;BME280;41329;41.594;23.810;2023-03-16T07:30:44;94345.53;;;9.96;58.81
55466;BME280;41329;41.594;23.810;2023-03-16T07:33:09;94353.53;;;10.15;59.96
55466;BME280;41329;41.594;23.810;2023-03-16T07:35:36;94353.91;;;10.17;58.21
55466;BME280;41329;41.594;23.810;2023-03-16T07:38:02;94342.84;;;10.07;57.72
55466;BME280;41329;41.594;23.810;2023-03-16T07:40:27;94340.09;;;10.24;57.53
55466;BME280;41329;41.594;23.810;2023-03-16T07:42:53;94346.47;;;10.46;58.09
55466;BME280;41329;41.594;23.810;2023-03-16T07:45:18;94339.72;;;10.75;58.81
55466;BME280;41329;41.594;23.810;2023-03-16T07:47:44;94333.38;;;10.95;54.80
55466;BME280;41329;41.594;23.810;2023-03-16T07:50:10;94336.50;;;11.11;54.69
55466;BME280;41329;41.594;23.810;2023-03-16T07:52:36;94353.44;;;11.38;54.54
55466;BME280;41329;41.594;23.810;2023-03-16T07:55:02;94339.94;;;11.54;53.42
55466;BME280;41329;41.594;23.810;2023-03-16T07:57:28;94352.19;;;11.70;50.98
55466;BME280;41329;41.594;23.810;2023-03-16T07:59:53;94342.69;;;11.64;51.11
55466;BME280;41329;41.594;23.810;2023-03-16T08:02:19;94347.72;;;11.90;51.83
55466;BME280;41329;41.594;23.810;2023-03-16T08:04:46;94353.53;;;12.13;51.49
55466;BME280;41329;41.594;23.810;2023-03-16T08:07:12;94349.97;;;12.13;50.43
55466;BME280;41329;41.594;23.810;2023-03-16T08:09:39;94348.72;;;12.24;51.10
55466;BME280;41329;41.594;23.810;2023-03-16T08:12:06;94357.69;;;12.46;50.96
55466;BME280;41329;41.594;23.810;2023-03-16T08:14:33;94356.88;;;12.49;50.20
55466;BME280;41329;41.594;23.810;2023-03-16T08:17:04;94356.91;;;12.42;50.03
55466;BME280;41329;41.594;23.810;2023-03-16T08:19:31;94348.84;;;12.03;48.65
55466;BME280;41329;41.594;23.810;2023-03-16T08:21:58;94344.34;;;12.27;49.17
55466;BME280;41329;41.594;23.810;2023-03-16T08:24:26;94363.13;;;12.60;50.33
55466;BME280;41329;41.594;23.810;2023-03-16T08:26:52;94364.47;;;12.93;50.99
55466;BME280;41329;41.594;23.810;2023-03-16T08:29:18;94379.41;;;13.09;47.45
55466;BME280;41329;41.594;23.810;2023-03-16T08:31:43;94370.72;;;13.04;45.78
55466;BME280;41329;41.594;23.810;2023-03-16T08:34:09;94378.25;;;13.07;45.03
55466;BME280;41329;41.594;23.810;2023-03-16T08:36:36;94375.47;;;13.07;44.59
55466;BME280;41329;41.594;23.810;2023-03-16T08:39:02;94381.06;;;13.03;44.91
55466;BME280;41329;41.594;23.810;2023-03-16T08:41:31;94362.78;;;13.06;45.79
55466;BME280;41329;41.594;23.810;2023-03-16T08:43:57;94382.88;;;13.20;45.54
55466;BME280;41329;41.594;23.810;2023-03-16T08:46:23;94372.19;;;13.19;43.80
55466;BME280;41329;41.594;23.810;2023-03-16T08:48:49;94381.31;;;13.16;43.86
55466;BME280;41329;41.594;23.810;2023-03-16T08:51:15;94357.28;;;13.02;43.97
55466;BME280;41329;41.594;23.810;2023-03-16T08:53:42;94380.13;;;13.20;44.26
55466;BME280;41329;41.594;23.810;2023-03-16T08:56:10;94376.53;;;13.23;44.84
55466;BME280;41329;41.594;23.810;2023-03-16T08:58:37;94384.31;;;13.35;44.35
55466;BME280;41329;41.594;23.810;2023-03-16T09:01:04;94370.09;;;13.30;44.06
55466;BME280;41329;41.594;23.810;2023-03-16T09:03:33;94380.88;;;13.24;42.39
55466;BME280;41329;41.594;23.810;2023-03-16T09:06:01;94374.41;;;12.90;43.02
55466;BME280;41329;41.594;23.810;2023-03-16T09:08:27;94374.44;;;12.83;43.82
55466;BME280;41329;41.594;23.810;2023-03-16T09:11:04;94376.03;;;12.84;43.71
55466;BME280;41329;41.594;23.810;2023-03-16T09:13:32;94368.47;;;12.88;44.22
55466;BME280;41329;41.594;23.810;2023-03-16T09:15:59;94329.78;;;12.67;43.00
55466;BME280;41329;41.594;23.810;2023-03-16T09:18:25;94384.25;;;13.02;43.62
55466;BME280;41329;41.594;23.810;2023-03-16T09:20:58;94381.38;;;13.12;43.96
55466;BME280;41329;41.594;23.810;2023-03-16T09:23:25;94380.13;;;13.20;43.24
55466;BME280;41329;41.594;23.810;2023-03-16T09:25:52;94351.88;;;13.25;43.42
55466;BME280;41329;41.594;23.810;2023-03-16T09:28:21;94384.03;;;13.63;44.31
55466;BME280;41329;41.594;23.810;2023-03-16T09:30:46;94385.88;;;13.77;42.86
55466;BME280;41329;41.594;23.810;2023-03-16T09:33:14;94392.81;;;13.95;43.26
55466;BME280;41329;41.594;23.810;2023-03-16T09:35:39;94375.19;;;14.05;43.30
55466;BME280;41329;41.594;23.810;2023-03-16T09:38:04;94337.63;;;13.90;42.48
55466;BME280;41329;41.594;23.810;2023-03-16T09:40:31;94383.63;;;14.32;41.96
55466;BME280;41329;41.594;23.810;2023-03-16T09:45:47;94372.97;;;14.23;41.00
55466;BME280;41329;41.594;23.810;2023-03-16T09:48:18;94388.44;;;14.28;40.04
55466;BME280;41329;41.594;23.810;2023-03-16T09:50:46;94388.91;;;14.23;40.97
55466;BME280;41329;41.594;23.810;2023-03-16T09:53:29;94388.28;;;14.05;40.57
55466;BME280;41329;41.594;23.810;2023-03-16T09:56:07;94390.47;;;13.90;41.04
55466;BME280;41329;41.594;23.810;2023-03-16T09:58:34;94375.44;;;13.84;40.67
55466;BME280;41329;41.594;23.810;2023-03-16T10:01:06;94392.06;;;13.91;41.09
55466;BME280;41329;41.594;23.810;2023-03-16T10:06:15;94392.88;;;13.88;40.68
55466;BME280;41329;41.594;23.810;2023-03-16T10:11:51;94379.81;;;14.15;41.67
55466;BME280;41329;41.594;23.810;2023-03-16T10:17:28;94381.59;;;14.62;40.18
55466;BME280;41329;41.594;23.810;2023-03-16T10:20:03;94379.66;;;14.59;39.94
55466;BME280;41329;41.594;23.810;2023-03-16T10:22:36;94390.06;;;14.78;39.45
55466;BME280;41329;41.594;23.810;2023-03-16T10:25:17;94383.81;;;14.97;37.88
55466;BME280;41329;41.594;23.810;2023-03-16T10:27:44;94365.41;;;15.03;40.41
55466;BME280;41329;41.594;23.810;2023-03-16T10:30:31;94374.22;;;15.25;37.49
55466;BME280;41329;41.594;23.810;2023-03-16T10:33:27;94375.13;;;15.41;38.16
55466;BME280;41329;41.594;23.810;2023-03-16T10:36:04;94374.63;;;15.23;37.42
55466;BME280;41329;41.594;23.810;2023-03-16T10:38:50;94377.97;;;15.15;36.85
55466;BME280;41329;41.594;23.810;2023-03-16T10:43:54;94375.78;;;15.03;37.76
55466;BME280;41329;41.594;23.810;2023-03-16T10:46:20;94373.09;;;14.96;37.37
55466;BME280;41329;41.594;23.810;2023-03-16T10:51:23;94363.09;;;14.98;37.46
55466;BME280;41329;41.594;23.810;2023-03-16T10:53:50;94356.03;;;14.94;36.90
55466;BME280;41329;41.594;23.810;2023-03-16T10:56:23;94357.88;;;14.51;37.16
55466;BME280;41329;41.594;23.810;2023-03-16T10:58:49;94374.09;;;14.82;38.02
55466;BME280;41329;41.594;23.810;2023-03-16T11:01:33;94369.41;;;14.79;36.72
55466;BME280;41329;41.594;23.810;2023-03-16T11:03:59;94381.28;;;14.83;36.66
55466;BME280;41329;41.594;23.810;2023-03-16T11:06:31;94373.28;;;14.85;38.22
55466;BME280;41329;41.594;23.810;2023-03-16T11:09:06;94365.53;;;14.96;37.32
55466;BME280;41329;41.594;23.810;2023-03-16T11:11:35;94368.66;;;15.02;36.09
55466;BME280;41329;41.594;23.810;2023-03-16T11:14:02;94360.50;;;14.88;36.75
55466;BME280;41329;41.594;23.810;2023-03-16T11:19:39;94366.72;;;14.95;37.09
55466;BME280;41329;41.594;23.810;2023-03-16T11:22:21;94359.97;;;14.96;37.30
55466;BME280;41329;41.594;23.810;2023-03-16T11:30:24;94342.13;;;14.94;37.62
55466;BME280;41329;41.594;23.810;2023-03-16T11:32:53;94341.03;;;15.11;37.56
55466;BME280;41329;41.594;23.810;2023-03-16T11:35:22;94352.75;;;15.22;37.19
55466;BME280;41329;41.594;23.810;2023-03-16T11:38:12;94344.81;;;15.20;38.08
55466;BME280;41329;41.594;23.810;2023-03-16T11:41:00;94353.13;;;15.47;37.23
55466;BME280;41329;41.594;23.810;2023-03-16T11:43:51;94352.94;;;15.57;36.26
55466;BME280;41329;41.594;23.810;2023-03-16T11:46:30;94343.50;;;15.51;36.79
55466;BME280;41329;41.594;23.810;2023-03-16T11:56:54;94350.69;;;15.26;35.76
55466;BME280;41329;41.594;23.810;2023-03-16T12:02:04;94350.88;;;15.15;36.40
55466;BME280;41329;41.594;23.810;2023-03-16T12:11:11;94358.03;;;15.16;36.74
55466;BME280;41329;41.594;23.810;2023-03-16T12:16:26;94347.78;;;14.87;36.34
55466;BME280;41329;41.594;23.810;2023-03-16T12:18:59;94365.06;;;15.01;36.80
55466;BME280;41329;41.594;23.810;2023-03-16T12:21:39;94363.72;;;14.33;38.09
55466;BME280;41329;41.594;23.810;2023-03-16T12:24:14;94365.84;;;14.22;38.09
55466;BME280;41329;41.594;23.810;2023-03-16T12:26:41;94373.63;;;14.01;38.69
55466;BME280;41329;41.594;23.810;2023-03-16T12:29:36;94356.25;;;13.63;39.17
55466;BME280;41329;41.594;23.810;2023-03-16T12:32:08;94379.34;;;13.57;39.69
55466;BME280;41329;41.594;23.810;2023-03-16T12:34:55;94371.94;;;13.43;39.20
55466;BME280;41329;41.594;23.810;2023-03-16T12:37:40;94368.13;;;13.27;39.21
55466;BME280;41329;41.594;23.810;2023-03-16T12:48:36;94380.75;;;13.35;39.60
55466;BME280;41329;41.594;23.810;2023-03-16T12:51:03;94378.75;;;13.35;39.54
55466;BME280;41329;41.594;23.810;2023-03-16T12:56:19;94390.69;;;13.73;39.37
55466;BME280;41329;41.594;23.810;2023-03-16T12:58:47;94395.16;;;13.63;38.67
55466;BME280;41329;41.594;23.810;2023-03-16T13:01:16;94385.13;;;13.69;39.17
55466;BME280;41329;41.594;23.810;2023-03-16T13:03:43;94388.38;;;13.64;38.80
55466;BME280;41329;41.594;23.810;2023-03-16T13:06:20;94394.69;;;13.68;39.19
55466;BME280;41329;41.594;23.810;2023-03-16T13:08:51;94392.78;;;13.62;39.07
55466;BME280;41329;41.594;23.810;2023-03-16T13:11:19;94382.81;;;13.64;39.09
55466;BME280;41329;41.594;23.810;2023-03-16T13:14:06;94402.13;;;13.78;39.21
55466;BME280;41329;41.594;23.810;2023-03-16T13:16:34;94405.25;;;13.47;38.52
55466;BME280;41329;41.594;23.810;2023-03-16T13:19:16;94409.06;;;13.23;39.43
55466;BME280;41329;41.594;23.810;2023-03-16T13:21:59;94402.59;;;13.33;39.08
55466;BME280;41329;41.594;23.810;2023-03-16T13:24:35;94405.06;;;13.24;39.27
55466;BME280;41329;41.594;23.810;2023-03-16T13:27:03;94399.66;;;13.10;39.36
55466;BME280;41329;41.594;23.810;2023-03-16T13:29:31;94405.69;;;12.98;39.41
55466;BME280;41329;41.594;23.810;2023-03-16T13:31:59;94408.44;;;13.01;39.86
55466;BME280;41329;41.594;23.810;2023-03-16T13:34:32;94419.19;;;12.99;39.18
55466;BME280;41329;41.594;23.810;2023-03-16T13:37:00;94415.22;;;12.93;39.81
55466;BME280;41329;41.594;23.810;2023-03-16T13:39:28;94419.66;;;12.84;40.23
55466;BME280;41329;41.594;23.810;2023-03-16T13:42:11;94427.97;;;12.87;39.86
55466;BME280;41329;41.594;23.810;2023-03-16T13:44:39;94404.41;;;12.51;39.69
55466;BME280;41329;41.594;23.810;2023-03-16T13:47:06;94411.56;;;12.52;39.83
55466;BME280;41329;41.594;23.810;2023-03-16T13:49:32;94424.69;;;12.41;39.75
55466;BME280;41329;41.594;23.810;2023-03-16T13:51:58;94382.88;;;12.04;40.19
55466;BME280;41329;41.594;23.810;2023-03-16T13:54:25;94415.28;;;12.21;40.47
55466;BME280;41329;41.594;23.810;2023-03-16T13:56:55;94433.81;;;12.38;40.54
55466;BME280;41329;41.594;23.810;2023-03-16T13:59:22;94422.75;;;12.34;40.16
55466;BME280;41329;41.594;23.810;2023-03-16T14:01:54;94440.97;;;12.35;40.34
55466;BME280;41329;41.594;23.810;2023-03-16T14:04:22;94436.66;;;12.27;40.26